メインページ
METAR-TAF:

METAR-TAF

空港 :

イースター島, チリ

マタベリ国際空港

緯度: 27-09S, 経度: 109-25W, 海抜: 51m

現時点の気象観測

当レポートは27分前の17:00(UTC)に作成
の風 17kt、東/北東から東/南東の間で変化する
気温 18°C
湿度 56%
気圧 1029 hPa
視程10km以上
高度2000ftの雲は散在している
高度3500ftの千切れ雲あり

METAR: SCIP 231700Z 10017KT 060V120 9999 SCT020 BKN035 18/09 Q1029 TEMPO 10015G25KT

時間: 12:27 (17:27 UTC)

予報

当レポートは6時間58分前の10:29(UTC)に作成
予報は23日の 12時(UTC)から 24日の 12時(UTC)まで有効
の風 18kt
視程10km以上
高度2000ftの雲は散在している
高度4000ftの千切れ雲あり
23日の 13時(UTC)から 23日の 16時(UTC)まで一時的に
南東の風 13kt、最大23ktの突風を伴う
視程: 6000m
高度1500ftの雲は散在している
高度3000ftの千切れ雲あり
弱いにわか雨
23日の 18時(UTC)から 23日の 20時(UTC)まで徐々に
の風 15kt、最大25ktの突風を伴う
高度2000ftの雲は散在している
高度3000ftの千切れ雲あり
23日の 21時(UTC)から 24日の 00時(UTC)まで一時的に
の風 20kt
視程: 7000m
高度1800ftの千切れ雲あり
弱いにわか雨
24日の 04時(UTC)から 24日の 06時(UTC)まで徐々に
の風 15kt
高度2000ftの雲は散在している
24日の 10時(UTC)から 24日の 12時(UTC)まで一時的に
視程: 7000m
高度2000ftの千切れ雲あり
弱いにわか雨

TAF: SCIP 231029Z 2312/2412 10018KT 9999 SCT020 BKN040 TX20/2321Z TN14 /2410Z TEMPO 2313/2316 13013G23KT 6000 -SHRA SCT015 BKN030 BECMG 2318/2320 10015G25KT SCT020 BKN030 TEMPO 2321/2400 10020KT 7000 -SHRA BKN018 BECMG 2404/2406 10015KT SCT020 TEMPO 2410/2412 7000 -SHRA BKN020

4,000以上の空港の気象観測と天気予報(METAR報とTAF報)

利用可能な観測所は地図上に黄色い丸と赤い丸で示す。

丸の上にカーソルを重ねると観測所名を参照できる。

次にクリックすると気象観測と天気予報を参照できる。

マップの切り替え:黒色「×」印の緑ボタンをクリックして拡大、「-」印の緑ボタンをクリックして縮小、緑色の三角印をクリックして隣りの地図に切り替え


METAR-TAF: